createdAt,value
2022-08-19T00:00:26.135Z,18.95
2022-08-19T00:03:29.157Z,22.23
2022-08-19T00:06:32.711Z,23.65
2022-08-19T00:09:36.634Z,23.58
2022-08-19T00:12:40.261Z,23.63
2022-08-19T00:15:51.318Z,21.25
2022-08-19T00:18:54.529Z,25.20
2022-08-19T00:21:57.501Z,24.02
2022-08-19T00:25:00.681Z,20.10
2022-08-19T00:28:06.341Z,20.88
2022-08-19T00:31:11.296Z,21.08
2022-08-19T00:34:16.189Z,23.80
2022-08-19T00:37:19.141Z,24.30
2022-08-19T00:40:22.672Z,20.48
2022-08-19T00:43:28.219Z,29.83
2022-08-19T00:46:33.744Z,30.27
2022-08-19T00:49:41.714Z,26.90
2022-08-19T00:52:49.648Z,26.63
2022-08-19T00:55:55.697Z,26.58
2022-08-19T00:59:00.865Z,22.83
2022-08-19T01:02:05.982Z,23.75
2022-08-19T01:05:13.662Z,25.80
2022-08-19T01:08:19.828Z,28.98
2022-08-19T01:11:23.050Z,26.20
2022-08-19T01:14:26.968Z,25.80
2022-08-19T01:17:31.865Z,23.50
2022-08-19T01:20:35.402Z,22.88
2022-08-19T01:23:45.358Z,23.48
2022-08-19T01:26:50.119Z,22.83
2022-08-19T01:29:54.016Z,24.35
2022-08-19T01:32:57.663Z,26.58
2022-08-19T01:36:08.390Z,23.75
2022-08-19T01:39:16.599Z,25.23
2022-08-19T01:42:20.131Z,25.40
2022-08-19T01:45:35.444Z,26.70
2022-08-19T01:48:41.413Z,28.25
2022-08-19T01:51:44.401Z,24.63
2022-08-19T01:54:48.750Z,26.05
2022-08-19T01:57:56.554Z,31.92
2022-08-19T02:01:00.675Z,28.13
2022-08-19T02:04:04.605Z,25.73
2022-08-19T02:07:08.894Z,25.77
2022-08-19T02:10:19.666Z,23.88
2022-08-19T02:13:26.233Z,26.50
2022-08-19T02:16:31.256Z,26.98
2022-08-19T02:19:34.707Z,27.73
2022-08-19T02:22:37.752Z,27.17
2022-08-19T02:25:43.236Z,26.45
2022-08-19T02:28:46.667Z,30.77
2022-08-19T02:31:49.877Z,24.83
2022-08-19T02:34:53.203Z,26.48
2022-08-19T02:38:13.604Z,23.05
2022-08-19T02:41:21.172Z,23.67
2022-08-19T02:44:31.603Z,23.75
2022-08-19T02:47:35.766Z,26.55
2022-08-19T02:50:40.507Z,27.42
2022-08-19T02:53:55.808Z,24.33
2022-08-19T02:57:00.710Z,25.67
2022-08-19T03:00:08.887Z,24.27
2022-08-19T03:03:12.388Z,26.80
2022-08-19T03:06:18.637Z,30.70
2022-08-19T03:09:22.353Z,26.17
2022-08-19T03:12:26.882Z,26.17
2022-08-19T03:15:30.004Z,25.80
2022-08-19T03:18:32.992Z,26.38
2022-08-19T03:21:37.404Z,28.13
2022-08-19T03:24:41.338Z,25.42
2022-08-19T03:27:46.882Z,25.67
2022-08-19T03:31:01.801Z,23.05
2022-08-19T03:34:05.095Z,21.58
2022-08-19T03:37:13.900Z,24.88
2022-08-19T03:40:17.093Z,25.67
2022-08-19T03:43:22.072Z,24.70
2022-08-19T03:46:29.187Z,25.08
2022-08-19T03:49:35.995Z,27.15
2022-08-19T03:52:40.383Z,28.08
2022-08-19T03:55:49.939Z,27.08
2022-08-19T03:58:54.523Z,28.40
2022-08-19T04:02:01.376Z,28.55
2022-08-19T04:05:04.635Z,26.15
2022-08-19T04:08:11.964Z,30.52
2022-08-19T04:11:19.339Z,30.40
2022-08-19T04:14:26.493Z,27.10
2022-08-19T04:17:29.541Z,26.67
2022-08-19T04:20:32.903Z,22.55
2022-08-19T04:23:37.102Z,24.58
2022-08-19T04:26:48.774Z,24.85
2022-08-19T04:29:56.016Z,24.40
2022-08-19T04:32:58.967Z,25.92
2022-08-19T04:36:01.953Z,26.70
2022-08-19T04:39:09.166Z,23.75
2022-08-19T04:42:30.907Z,24.88
2022-08-19T04:45:39.491Z,25.58
2022-08-19T04:48:49.481Z,25.42
2022-08-19T04:51:55.149Z,25.88
2022-08-19T04:54:58.113Z,26.15
2022-08-19T04:58:01.047Z,25.08
2022-08-19T05:01:06.874Z,26.20
2022-08-19T05:04:09.903Z,23.80
2022-08-19T05:07:13.752Z,23.08
2022-08-19T05:10:16.792Z,24.92
2022-08-19T05:13:21.367Z,26.92
2022-08-19T05:16:28.161Z,25.50
2022-08-19T05:19:48.441Z,27.73
2022-08-19T05:22:51.477Z,24.65
2022-08-19T05:25:54.556Z,24.10
2022-08-19T05:28:57.800Z,26.02
2022-08-19T05:32:03.428Z,23.45
2022-08-19T05:35:08.015Z,22.70
2022-08-19T05:38:12.122Z,25.88
2022-08-19T05:41:17.510Z,23.35
2022-08-19T05:44:22.653Z,25.25
2022-08-19T05:47:26.954Z,26.13
2022-08-19T05:50:30.872Z,23.65
2022-08-19T05:53:34.592Z,25.08
2022-08-19T05:56:40.680Z,23.40
2022-08-19T05:59:46.671Z,23.92
2022-08-19T06:02:52.073Z,27.38
2022-08-19T06:05:56.001Z,24.95
2022-08-19T06:08:59.001Z,26.90
2022-08-19T06:12:03.551Z,27.17
2022-08-19T06:15:11.120Z,27.00
2022-08-19T06:18:16.440Z,26.67
2022-08-19T06:21:21.054Z,24.70
2022-08-19T06:24:27.011Z,26.35
2022-08-19T06:27:31.774Z,26.67
2022-08-19T06:30:34.778Z,27.02
2022-08-19T06:33:40.754Z,28.85
2022-08-19T06:36:48.142Z,25.40
2022-08-19T06:39:51.950Z,25.25
2022-08-19T06:42:57.267Z,24.88
2022-08-19T06:46:02.057Z,28.70
2022-08-19T06:49:07.300Z,27.92
2022-08-19T06:52:15.283Z,25.50
2022-08-19T06:55:18.501Z,27.35
2022-08-19T06:58:22.229Z,29.85
2022-08-19T07:01:25.473Z,29.77
2022-08-19T07:04:33.803Z,28.05
2022-08-19T07:07:37.002Z,31.58
2022-08-19T07:10:44.900Z,32.20
2022-08-19T07:13:49.555Z,28.30
2022-08-19T07:16:59.044Z,27.70
2022-08-19T07:20:07.008Z,32.35
2022-08-19T07:23:16.576Z,30.15
2022-08-19T07:26:27.948Z,27.25
2022-08-19T07:29:34.330Z,28.58
2022-08-19T07:32:38.375Z,28.80
2022-08-19T07:35:43.050Z,28.55
2022-08-19T07:38:49.872Z,34.17
2022-08-19T07:41:53.321Z,27.45
2022-08-19T07:44:56.324Z,28.02
2022-08-19T07:47:59.918Z,30.80
2022-08-19T07:51:09.164Z,27.55
2022-08-19T07:54:12.555Z,33.35
2022-08-19T07:57:15.840Z,28.35
2022-08-19T08:00:23.146Z,27.30
2022-08-19T08:03:43.246Z,28.23
2022-08-19T08:07:05.421Z,29.88
2022-08-19T08:10:13.978Z,32.85
2022-08-19T08:13:24.138Z,36.22
2022-08-19T08:16:32.055Z,33.95
2022-08-19T08:19:35.476Z,29.08
2022-08-19T08:23:02.575Z,34.15
2022-08-19T08:26:05.709Z,28.30
2022-08-19T08:29:13.045Z,38.65
2022-08-19T08:32:16.570Z,30.58
2022-08-19T08:35:22.828Z,31.70
2022-08-19T08:38:28.214Z,26.83
2022-08-19T08:41:48.821Z,26.85
2022-08-19T08:45:00.409Z,29.33
2022-08-19T08:48:22.033Z,27.05
2022-08-19T08:51:35.378Z,28.70
2022-08-19T08:54:48.941Z,29.48
2022-08-19T08:58:03.743Z,29.98
2022-08-19T09:01:06.988Z,25.95
2022-08-19T09:04:10.352Z,28.35
2022-08-19T09:07:35.350Z,28.80
2022-08-19T09:10:46.219Z,29.13
2022-08-19T09:14:47.392Z,29.98
2022-08-19T09:17:42.916Z,29.60
2022-08-19T09:20:47.892Z,27.95
2022-08-19T09:23:51.086Z,29.67
2022-08-19T09:26:56.502Z,32.40
2022-08-19T09:30:01.222Z,33.10
2022-08-19T09:33:05.502Z,30.63
2022-08-19T09:36:12.878Z,30.88
2022-08-19T09:39:24.857Z,27.80
2022-08-19T09:42:50.313Z,29.10
2022-08-19T09:45:54.740Z,30.55
2022-08-19T09:49:03.010Z,28.88
2022-08-19T09:52:13.693Z,27.45
2022-08-19T09:55:16.990Z,28.38
2022-08-19T09:58:26.650Z,26.02
2022-08-19T10:01:32.713Z,29.08
2022-08-19T10:04:53.463Z,26.70
2022-08-19T10:07:56.893Z,25.55
2022-08-19T10:11:28.373Z,26.98
2022-08-19T10:14:26.657Z,25.35
2022-08-19T10:17:31.517Z,26.55
2022-08-19T10:20:37.574Z,27.77
2022-08-19T10:23:46.086Z,29.42
2022-08-19T10:26:57.247Z,25.98
2022-08-19T10:30:04.857Z,26.30
2022-08-19T10:33:14.953Z,24.33
2022-08-19T10:36:21.258Z,26.13
2022-08-19T10:39:24.304Z,23.05
2022-08-19T10:42:33.968Z,24.08
2022-08-19T10:45:38.263Z,26.83
2022-08-19T10:48:56.610Z,25.35
2022-08-19T10:52:18.802Z,24.20
2022-08-19T10:55:43.544Z,27.00
2022-08-19T10:58:46.518Z,23.65
2022-08-19T11:01:53.026Z,24.90
2022-08-19T11:05:01.836Z,23.70
2022-08-19T11:08:17.686Z,24.48
2022-08-19T11:11:26.535Z,22.85
2022-08-19T11:14:32.156Z,26.58
2022-08-19T11:17:41.593Z,24.25
2022-08-19T11:20:44.529Z,25.80
2022-08-19T11:23:49.764Z,25.23
2022-08-19T11:26:59.870Z,24.33
2022-08-19T11:30:04.526Z,25.05
2022-08-19T11:33:11.886Z,25.30
2022-08-19T11:36:15.244Z,24.42
2022-08-19T11:39:22.588Z,21.40
2022-08-19T11:42:42.910Z,23.83
2022-08-19T11:45:45.882Z,23.48
2022-08-19T11:48:51.782Z,22.98
2022-08-19T11:51:55.200Z,25.23
2022-08-19T11:54:58.168Z,23.67
2022-08-19T11:58:01.164Z,25.25
2022-08-19T12:01:08.253Z,23.58
2022-08-19T12:04:12.928Z,19.83
2022-08-19T12:07:16.065Z,21.17
2022-08-19T12:10:20.665Z,20.88
2022-08-19T12:13:26.402Z,23.10
2022-08-19T12:16:31.522Z,19.85
2022-08-19T12:19:40.703Z,18.10
2022-08-19T12:22:44.426Z,25.35
2022-08-19T12:25:51.088Z,20.52
2022-08-19T12:28:54.920Z,21.55
2022-08-19T12:32:02.088Z,17.50
2022-08-19T12:35:10.113Z,17.23
2022-08-19T12:38:15.525Z,17.02
2022-08-19T12:41:19.720Z,17.08
2022-08-19T12:44:29.607Z,19.13
2022-08-19T12:47:35.718Z,18.13
2022-08-19T12:50:43.969Z,17.33
2022-08-19T12:53:48.345Z,17.30
2022-08-19T12:56:51.296Z,16.48
2022-08-19T12:59:55.375Z,16.50
2022-08-19T13:02:58.342Z,16.13
2022-08-19T13:06:02.697Z,17.88
2022-08-19T13:09:06.394Z,15.55
2022-08-19T13:12:13.868Z,15.98
2022-08-19T13:15:23.798Z,16.92
2022-08-19T13:18:27.345Z,18.88
2022-08-19T13:21:31.756Z,17.35
2022-08-19T13:24:35.041Z,16.60
2022-08-19T13:27:39.053Z,16.75
2022-08-19T13:30:59.674Z,16.75
2022-08-19T13:34:03.202Z,16.35
2022-08-19T13:37:08.349Z,17.75
2022-08-19T13:40:16.998Z,19.58
2022-08-19T13:43:22.868Z,17.92
2022-08-19T13:46:28.260Z,17.65
2022-08-19T13:49:31.907Z,18.48
2022-08-19T13:52:36.193Z,17.67
2022-08-19T13:55:40.698Z,18.60
2022-08-19T13:58:44.367Z,18.15
2022-08-19T14:01:47.354Z,17.10
2022-08-19T14:04:50.374Z,17.85
2022-08-19T14:07:54.873Z,18.55
2022-08-19T14:10:58.002Z,16.80
2022-08-19T14:14:01.071Z,20.02
2022-08-19T14:17:04.136Z,17.52
2022-08-19T14:20:11.433Z,19.50
2022-08-19T14:23:22.549Z,19.92
2022-08-19T14:26:25.976Z,17.75
2022-08-19T14:29:29.856Z,18.02
2022-08-19T14:32:32.931Z,18.05
2022-08-19T14:35:36.716Z,18.38
2022-08-19T14:38:41.287Z,17.88
2022-08-19T14:41:44.316Z,18.67
2022-08-19T14:44:47.657Z,17.83
2022-08-19T14:47:50.666Z,16.75
2022-08-19T14:50:54.110Z,16.83
2022-08-19T14:53:58.868Z,16.40
2022-08-19T14:57:01.862Z,17.80
2022-08-19T15:00:06.997Z,17.30
2022-08-19T15:03:09.982Z,18.05
2022-08-19T15:06:13.278Z,15.80
2022-08-19T15:09:17.582Z,14.52
2022-08-19T15:12:22.169Z,15.50
2022-08-19T15:15:25.463Z,16.75
2022-08-19T15:18:28.525Z,17.48
2022-08-19T15:21:33.593Z,16.42
2022-08-19T15:24:48.017Z,15.85
2022-08-19T15:27:52.199Z,15.85
2022-08-19T15:30:55.558Z,15.63
2022-08-19T15:33:59.279Z,15.85
2022-08-19T15:37:04.511Z,13.63
2022-08-19T15:40:10.712Z,14.70
2022-08-19T15:43:13.739Z,15.57
2022-08-19T15:46:19.778Z,14.38
2022-08-19T15:49:22.859Z,14.80
2022-08-19T15:52:27.204Z,14.95
2022-08-19T15:55:35.176Z,15.30
2022-08-19T15:58:56.987Z,14.38
2022-08-19T16:02:17.324Z,13.88
2022-08-19T16:05:41.213Z,15.18
2022-08-19T16:08:48.908Z,14.68
2022-08-19T16:11:56.883Z,17.75
2022-08-19T16:15:00.268Z,14.10
2022-08-19T16:18:03.670Z,13.65
2022-08-19T16:21:08.103Z,13.63
2022-08-19T16:24:14.384Z,14.73
2022-08-19T16:27:18.787Z,15.13
2022-08-19T16:30:21.991Z,15.48
2022-08-19T16:33:24.952Z,15.02
2022-08-19T16:36:28.539Z,16.75
2022-08-19T16:39:32.080Z,16.52
2022-08-19T16:42:36.806Z,17.80
2022-08-19T16:45:40.018Z,15.00
2022-08-19T16:48:47.191Z,17.08
2022-08-19T16:51:50.394Z,18.55
2022-08-19T16:54:53.863Z,17.52
2022-08-19T16:57:58.122Z,17.77
2022-08-19T17:01:04.208Z,17.33
2022-08-19T17:04:07.443Z,17.10
2022-08-19T17:07:11.219Z,19.13
2022-08-19T17:10:14.546Z,18.08
2022-08-19T17:13:19.109Z,18.00
2022-08-19T17:16:25.970Z,19.08
2022-08-19T17:19:29.254Z,17.17
2022-08-19T17:22:32.432Z,18.40
2022-08-19T17:25:35.942Z,18.92
2022-08-19T17:28:40.968Z,17.77
2022-08-19T17:31:46.733Z,17.35
2022-08-19T17:34:49.918Z,16.67
2022-08-19T17:37:53.339Z,15.55
2022-08-19T17:41:01.513Z,17.27
2022-08-19T17:44:07.097Z,19.45
2022-08-19T17:47:10.977Z,18.15
2022-08-19T17:50:14.193Z,23.92
2022-08-19T17:53:17.907Z,21.58
2022-08-19T17:56:23.576Z,16.95
2022-08-19T17:59:30.108Z,16.27
2022-08-19T18:02:33.832Z,16.88
2022-08-19T18:05:44.705Z,17.50
2022-08-19T18:08:49.108Z,15.18
2022-08-19T18:11:54.671Z,16.80
2022-08-19T18:15:00.225Z,15.93
2022-08-19T18:18:03.540Z,16.35
2022-08-19T18:21:18.210Z,17.02
2022-08-19T18:24:21.197Z,16.40
2022-08-19T18:27:24.604Z,14.85
2022-08-19T18:30:34.091Z,16.27
2022-08-19T18:33:44.292Z,17.40
2022-08-19T18:36:53.967Z,19.67
2022-08-19T18:40:15.293Z,16.92
2022-08-19T18:43:36.484Z,13.55
2022-08-19T18:46:58.203Z,14.77
2022-08-19T18:50:08.081Z,13.10
2022-08-19T18:53:16.139Z,13.57
2022-08-19T18:56:23.846Z,15.57
2022-08-19T18:59:29.573Z,14.52
2022-08-19T19:02:39.416Z,15.38
2022-08-19T19:05:44.238Z,15.20
2022-08-19T19:08:48.258Z,13.70
2022-08-19T19:11:55.772Z,15.25
2022-08-19T19:14:58.950Z,12.77
2022-08-19T19:18:03.308Z,16.80
2022-08-19T19:21:07.650Z,13.55
2022-08-19T19:24:13.903Z,14.18
2022-08-19T19:27:20.429Z,14.10
2022-08-19T19:30:25.767Z,14.27
2022-08-19T19:33:30.078Z,13.98
2022-08-19T19:36:33.084Z,15.23
2022-08-19T19:39:46.679Z,15.20
2022-08-19T19:42:51.887Z,14.70
2022-08-19T19:45:55.175Z,17.00
2022-08-19T19:49:00.378Z,17.00
2022-08-19T19:52:03.750Z,14.13
2022-08-19T19:55:09.222Z,18.40
2022-08-19T19:58:12.294Z,15.15
2022-08-19T20:01:17.555Z,18.40
2022-08-19T20:04:29.051Z,17.67
2022-08-19T20:07:46.049Z,16.30
2022-08-19T20:10:49.054Z,17.73
2022-08-19T20:13:52.028Z,17.85
2022-08-19T20:16:57.033Z,18.38
2022-08-19T20:20:01.599Z,18.77
2022-08-19T20:23:04.658Z,19.45
2022-08-19T20:26:08.480Z,17.25
2022-08-19T20:29:39.639Z,17.48
2022-08-19T20:32:46.378Z,19.35
2022-08-19T20:35:50.703Z,20.80
2022-08-19T20:38:53.755Z,19.90
2022-08-19T20:41:57.159Z,19.02
2022-08-19T20:45:00.135Z,17.02
2022-08-19T20:48:04.313Z,20.45
2022-08-19T20:51:10.518Z,18.67
2022-08-19T20:54:14.326Z,22.17
2022-08-19T20:57:17.524Z,17.90
2022-08-19T21:00:20.774Z,18.75
2022-08-19T21:03:27.255Z,18.50
2022-08-19T21:06:31.540Z,18.38
2022-08-19T21:09:35.760Z,17.20
2022-08-19T21:12:40.629Z,20.58
2022-08-19T21:15:44.386Z,17.92
2022-08-19T21:18:47.783Z,17.75
2022-08-19T21:21:52.471Z,18.33
2022-08-19T21:24:55.468Z,16.77
2022-08-19T21:27:58.866Z,20.05
2022-08-19T21:31:02.490Z,19.35
2022-08-19T21:34:05.991Z,19.30
2022-08-19T21:37:19.002Z,13.95
2022-08-19T21:40:29.234Z,14.75
2022-08-19T21:43:32.546Z,15.60
2022-08-19T21:46:36.107Z,14.82
2022-08-19T21:49:39.180Z,14.55
2022-08-19T21:52:44.157Z,16.33
2022-08-19T21:55:52.795Z,14.63
2022-08-19T21:58:56.699Z,25.17
2022-08-19T22:02:15.855Z,19.40
2022-08-19T22:05:24.456Z,21.00
2022-08-19T22:08:29.757Z,21.20
2022-08-19T22:11:32.816Z,23.02
2022-08-19T22:14:36.036Z,19.05
2022-08-19T22:17:40.266Z,22.38
2022-08-19T22:20:45.330Z,18.05
2022-08-19T22:23:49.662Z,17.42
2022-08-19T22:26:52.668Z,18.30
2022-08-19T22:29:55.639Z,20.85
2022-08-19T22:33:01.232Z,18.48
2022-08-19T22:36:07.456Z,19.13
2022-08-19T22:39:11.860Z,19.48
2022-08-19T22:42:18.965Z,23.10
2022-08-19T22:45:22.582Z,23.00
2022-08-19T22:48:29.670Z,22.05
2022-08-19T22:51:46.854Z,25.60
2022-08-19T22:54:54.585Z,23.85
2022-08-19T22:57:59.176Z,22.98
2022-08-19T23:01:02.602Z,24.75
2022-08-19T23:04:06.023Z,26.30
2022-08-19T23:07:09.288Z,25.17
2022-08-19T23:10:13.937Z,26.65
2022-08-19T23:13:31.789Z,29.33
2022-08-19T23:16:35.640Z,30.75
2022-08-19T23:19:39.347Z,29.83
2022-08-19T23:22:44.042Z,25.45
2022-08-19T23:25:50.066Z,27.83
2022-08-19T23:29:10.787Z,28.77
2022-08-19T23:32:16.145Z,31.60
2022-08-19T23:35:19.730Z,31.60
2022-08-19T23:38:23.632Z,35.85
2022-08-19T23:41:28.505Z,31.20
2022-08-19T23:44:31.615Z,30.60
2022-08-19T23:47:34.839Z,33.47
2022-08-19T23:50:40.984Z,34.55
2022-08-19T23:53:44.946Z,29.67
2022-08-19T23:56:49.217Z,29.08
2022-08-19T23:59:52.189Z,31.48
